createdAt,value
2022-09-28T00:00:56.786Z,9.19
2022-09-28T00:06:05.731Z,9.19
2022-09-28T00:11:14.771Z,9.19
2022-09-28T00:16:23.725Z,9.19
2022-09-28T00:26:30.929Z,9.25
2022-09-28T00:31:40.285Z,9.25
2022-09-28T00:36:49.269Z,9.25
2022-09-28T00:41:58.229Z,9.25
2022-09-28T01:02:01.572Z,9.25
2022-09-28T01:07:10.662Z,9.38
2022-09-28T01:12:19.670Z,9.38
2022-09-28T01:17:28.821Z,9.44
2022-09-28T01:22:37.888Z,9.44
2022-09-28T01:27:46.893Z,9.44
2022-09-28T01:32:55.914Z,9.44
2022-09-28T01:43:03.363Z,9.38
2022-09-28T01:48:12.389Z,9.38
2022-09-28T01:53:21.554Z,9.38
2022-09-28T01:58:30.466Z,9.38
2022-09-28T02:03:39.443Z,9.38
2022-09-28T02:08:48.390Z,9.44
2022-09-28T02:13:57.451Z,9.38
2022-09-28T02:19:06.389Z,9.44
2022-09-28T02:24:18.233Z,9.44
2022-09-28T02:29:24.392Z,9.44
2022-09-28T02:34:33.561Z,9.5
2022-09-28T02:39:42.424Z,9.5
2022-09-28T02:44:51.221Z,9.5
2022-09-28T02:50:00.349Z,9.44
2022-09-28T02:55:09.266Z,9.44
2022-09-28T03:00:18.270Z,9.44
2022-09-28T03:05:27.407Z,9.44
2022-09-28T03:10:36.361Z,9.44
2022-09-28T03:15:48.739Z,9.44
2022-09-28T03:20:54.419Z,9.38
2022-09-28T03:26:03.456Z,9.44
2022-09-28T03:31:12.508Z,9.44
2022-09-28T03:36:21.515Z,9.38
2022-09-28T03:41:30.424Z,9.31
2022-09-28T03:56:35.685Z,9.19
2022-09-28T04:01:44.665Z,9.13
2022-09-28T04:06:53.759Z,9.06
2022-09-28T04:12:04.446Z,8.94
2022-09-28T04:17:11.711Z,8.94
2022-09-28T04:22:20.707Z,8.88
2022-09-28T04:27:29.632Z,8.94
2022-09-28T04:37:47.702Z,8.94
2022-09-28T04:42:56.729Z,8.88
2022-09-28T04:48:05.696Z,8.81
2022-09-28T04:53:14.639Z,8.69
2022-09-28T04:58:23.644Z,8.69
2022-09-28T05:03:32.747Z,8.63
2022-09-28T05:08:41.764Z,8.63
2022-09-28T05:13:50.827Z,8.69
2022-09-28T05:18:59.886Z,8.69
2022-09-28T05:24:09.030Z,8.69
2022-09-28T05:29:18.248Z,8.81
2022-09-28T05:34:26.993Z,8.88
2022-09-28T05:39:35.854Z,8.94
2022-09-28T05:44:44.909Z,9
2022-09-28T05:49:53.983Z,9.06
2022-09-28T05:55:02.926Z,9.13
2022-09-28T06:00:11.859Z,9.19
2022-09-28T06:05:21.006Z,9.19
2022-09-28T06:10:29.991Z,9.19
2022-09-28T06:25:35.290Z,9.06
2022-09-28T06:45:49.902Z,9.69
2022-09-28T06:50:58.927Z,9.94
2022-09-28T06:56:11.177Z,9.94
2022-09-28T07:01:20.261Z,10
2022-09-28T07:06:29.211Z,10
2022-09-28T07:11:38.154Z,9.88
2022-09-28T07:17:07.551Z,9.75
2022-09-28T07:22:03.380Z,9.69
2022-09-28T07:27:05.065Z,9.69
2022-09-28T07:32:14.214Z,9.81
2022-09-28T07:37:23.371Z,10
2022-09-28T07:42:32.637Z,10.25
2022-09-28T07:47:41.780Z,10.31
2022-09-28T07:52:50.961Z,10.19
2022-09-28T07:58:00.278Z,10.44
2022-09-28T08:03:09.750Z,11
2022-09-28T08:08:18.803Z,11.38
2022-09-28T08:13:28.410Z,11.38
2022-09-28T08:18:36.776Z,11
2022-09-28T08:23:45.517Z,10.56
2022-09-28T08:28:56.503Z,11.12
2022-09-28T08:34:06.753Z,11.69
2022-09-28T08:39:15.877Z,11.94
2022-09-28T08:44:24.399Z,11.69
2022-09-28T08:49:31.930Z,11.38
2022-09-28T08:54:43.216Z,11.19
2022-09-28T08:59:52.114Z,11.12
2022-09-28T09:15:01.605Z,11.56
2022-09-28T09:20:12.083Z,12.31
2022-09-28T09:25:21.858Z,12.63
2022-09-28T09:30:31.438Z,11.94
2022-09-28T09:35:37.662Z,11.75
2022-09-28T09:40:46.223Z,11.5
2022-09-28T09:45:54.937Z,11.25
2022-09-28T09:51:07.032Z,11.31
2022-09-28T09:56:18.038Z,12.63
2022-09-28T10:01:27.979Z,13.56
2022-09-28T10:06:35.558Z,13.13
2022-09-28T10:11:46.409Z,12.44
2022-09-28T10:16:55.131Z,12
2022-09-28T10:22:04.329Z,12.44
2022-09-28T10:27:14.452Z,13.25
2022-09-28T10:32:23.125Z,13
2022-09-28T10:37:31.541Z,12.94
2022-09-28T10:42:40.377Z,13
2022-09-28T10:47:49.829Z,12.88
2022-09-28T10:52:58.306Z,12.63
2022-09-28T10:58:08.376Z,13.44
2022-09-28T11:03:17.491Z,13.31
2022-09-28T11:08:26.671Z,13.81
2022-09-28T11:13:35.514Z,14
2022-09-28T11:18:44.723Z,14.63
2022-09-28T11:23:53.170Z,13.81
2022-09-28T11:29:02.022Z,13.44
2022-09-28T11:34:10.828Z,13.13
2022-09-28T11:39:19.596Z,12.75
2022-09-28T11:44:29.531Z,12.56
2022-09-28T11:49:37.337Z,12.5
2022-09-28T11:54:46.134Z,12.5
2022-09-28T11:59:55.044Z,12.5
2022-09-28T12:05:04.012Z,12.69
2022-09-28T12:10:13.086Z,12.88
2022-09-28T12:15:22.203Z,13.25
2022-09-28T12:20:33.944Z,13.25
2022-09-28T12:25:43.135Z,13.31
2022-09-28T12:30:52.323Z,13.81
2022-09-28T12:36:02.113Z,14.56
2022-09-28T12:46:12.748Z,14.25
2022-09-28T12:51:17.626Z,14
2022-09-28T12:56:26.561Z,13.81
2022-09-28T13:01:35.765Z,13.62
2022-09-28T13:06:44.517Z,13.62
2022-09-28T13:11:53.305Z,13.56
2022-09-28T13:17:02.185Z,13.62
2022-09-28T13:22:11.167Z,13.62
2022-09-28T13:27:20.147Z,13.88
2022-09-28T13:32:29.227Z,14.25
2022-09-28T13:37:38.393Z,14
2022-09-28T13:42:47.369Z,14.06
2022-09-28T13:47:56.398Z,14.06
2022-09-28T13:53:05.446Z,14.5
2022-09-28T13:58:14.821Z,16.62
2022-09-28T14:03:24.672Z,19.12
2022-09-28T14:08:33.768Z,17.12
2022-09-28T14:13:42.109Z,15.56
2022-09-28T14:24:00.091Z,14.81
2022-09-28T14:29:11.659Z,14.81
2022-09-28T14:34:20.693Z,14.38
2022-09-28T14:39:29.800Z,14.25
2022-09-28T14:44:38.686Z,14.19
2022-09-28T14:49:47.864Z,14.25
2022-09-28T14:54:56.553Z,14.06
2022-09-28T15:00:05.999Z,13.88
2022-09-28T15:05:14.686Z,13.75
2022-09-28T15:10:27.412Z,13.69
2022-09-28T15:20:41.721Z,14
2022-09-28T15:25:50.658Z,14.06
2022-09-28T15:30:59.492Z,14
2022-09-28T15:36:08.385Z,13.81
2022-09-28T15:41:17.484Z,13.69
2022-09-28T15:46:26.506Z,13.62
2022-09-28T15:51:35.526Z,13.44
2022-09-28T15:56:44.619Z,13.31
2022-09-28T16:01:53.662Z,13.31
2022-09-28T16:07:02.452Z,13.19
2022-09-28T16:12:11.494Z,13.25
2022-09-28T16:17:20.491Z,13.06
2022-09-28T16:22:29.401Z,12.81
2022-09-28T16:32:35.891Z,12.25
2022-09-28T16:37:44.839Z,11.94
2022-09-28T16:42:53.801Z,11.69
2022-09-28T16:48:02.697Z,11.44
2022-09-28T16:53:11.731Z,11.06
2022-09-28T16:58:20.551Z,10.75
2022-09-28T17:03:29.625Z,10.63
2022-09-28T17:08:38.393Z,10.44
2022-09-28T17:13:47.251Z,10.25
2022-09-28T17:18:56.195Z,10.13
2022-09-28T17:24:05.120Z,10.06
2022-09-28T17:29:14.096Z,9.94
2022-09-28T17:34:23.293Z,9.75
2022-09-28T17:39:32.133Z,9.75
2022-09-28T17:44:40.991Z,9.63
2022-09-28T17:49:50.031Z,9.44
2022-09-28T17:54:59.007Z,9.38
2022-09-28T18:00:07.987Z,9.38
2022-09-28T18:05:19.857Z,9.63
2022-09-28T18:10:29.026Z,9.88
2022-09-28T18:15:38.222Z,10.06
2022-09-28T18:20:47.238Z,10.19
2022-09-28T18:25:56.236Z,10.19
2022-09-28T18:31:05.409Z,10
2022-09-28T18:36:14.354Z,9.81
2022-09-28T18:41:23.303Z,9.63
2022-09-28T18:46:32.292Z,9.63
2022-09-28T18:51:41.295Z,9.38
2022-09-28T18:56:49.979Z,9.25
2022-09-28T19:01:59.016Z,9.06
2022-09-28T19:07:07.721Z,8.88
2022-09-28T19:12:16.838Z,8.69
2022-09-28T19:17:25.735Z,8.56
2022-09-28T19:22:34.838Z,8.56
2022-09-28T19:27:43.751Z,8.56
2022-09-28T19:38:01.906Z,8.5
2022-09-28T19:43:10.843Z,8.63
2022-09-28T19:48:19.849Z,8.75
2022-09-28T19:53:28.985Z,8.88
2022-09-28T19:58:37.948Z,8.94
2022-09-28T20:03:47.025Z,8.94
2022-09-28T20:08:58.926Z,8.94
2022-09-28T20:14:09.657Z,9
2022-09-28T20:19:17.006Z,9
2022-09-28T20:24:26.068Z,8.94
2022-09-28T20:29:35.013Z,8.94
2022-09-28T20:34:43.960Z,8.94
2022-09-28T20:39:52.977Z,8.94
2022-09-28T20:45:02.071Z,8.88
2022-09-28T20:50:11.099Z,8.94
2022-09-28T20:55:20.375Z,8.94
2022-09-28T21:00:29.492Z,9
2022-09-28T21:05:38.479Z,9.06
2022-09-28T21:10:47.632Z,9.06
2022-09-28T21:15:56.617Z,9
2022-09-28T21:21:05.470Z,9
2022-09-28T21:26:14.520Z,8.88
2022-09-28T21:36:21.390Z,8.81
2022-09-28T21:46:39.437Z,8.75
2022-09-28T21:51:48.221Z,8.63
2022-09-28T21:56:57.251Z,8.5
2022-09-28T22:02:06.345Z,8.44
2022-09-28T22:07:15.208Z,8.44
2022-09-28T22:12:24.518Z,8.38
2022-09-28T22:17:33.621Z,8.38
2022-09-28T22:22:42.718Z,8.5
2022-09-28T22:27:51.685Z,8.31
2022-09-28T22:33:00.543Z,8.13
2022-09-28T22:38:09.459Z,8
2022-09-28T22:48:16.880Z,7.87
2022-09-28T22:53:25.968Z,7.87
2022-09-28T22:58:34.983Z,7.87
2022-09-28T23:03:43.942Z,7.94
2022-09-28T23:08:52.960Z,7.87
2022-09-28T23:14:02.002Z,7.87
2022-09-28T23:19:11.062Z,7.81
2022-09-28T23:24:19.840Z,7.81
2022-09-28T23:39:25.290Z,7.87
2022-09-28T23:44:34.297Z,7.87
2022-09-28T23:49:43.156Z,7.81
2022-09-28T23:54:52.343Z,7.75
